createdAt,value
2022-12-18T00:01:17.964Z,75.50
2022-12-18T00:03:45.607Z,73.97
2022-12-18T00:06:13.103Z,73.27
2022-12-18T00:08:39.682Z,74.37
2022-12-18T00:11:11.436Z,76.20
2022-12-18T00:13:38.458Z,75.64
2022-12-18T00:16:07.940Z,76.01
2022-12-18T00:18:34.683Z,75.79
2022-12-18T00:21:03.955Z,73.49
2022-12-18T00:23:31.384Z,73.94
2022-12-18T00:26:05.542Z,74.65
2022-12-18T00:28:32.437Z,72.47
2022-12-18T00:31:05.671Z,75.16
2022-12-18T00:33:32.658Z,75.12
2022-12-18T00:36:09.218Z,75.15
2022-12-18T00:38:36.020Z,73.43
2022-12-18T00:41:03.086Z,73.73
2022-12-18T00:43:29.864Z,73.03
2022-12-18T00:45:56.594Z,72.34
2022-12-18T00:48:23.745Z,74.40
2022-12-18T00:50:50.980Z,73.06
2022-12-18T00:53:17.645Z,74.83
2022-12-18T00:55:45.295Z,75.26
2022-12-18T00:58:13.928Z,74.94
2022-12-18T01:00:40.851Z,74.42
2022-12-18T01:03:07.859Z,75.84
2022-12-18T01:05:34.912Z,75.02
2022-12-18T01:08:01.553Z,76.25
2022-12-18T01:10:28.300Z,75.21
2022-12-18T01:12:54.811Z,76.80
2022-12-18T01:15:21.543Z,75.35
2022-12-18T01:17:48.430Z,75.34
2022-12-18T01:20:15.005Z,74.88
2022-12-18T01:22:41.726Z,75.57
2022-12-18T01:25:09.297Z,74.80
2022-12-18T01:27:35.912Z,77.05
2022-12-18T01:30:02.553Z,75.40
2022-12-18T01:32:31.670Z,77.68
2022-12-18T01:34:58.370Z,74.49
2022-12-18T01:37:25.374Z,76.04
2022-12-18T01:39:55.409Z,76.99
2022-12-18T01:42:22.632Z,75.89
2022-12-18T01:45:03.502Z,77.17
2022-12-18T01:47:39.067Z,75.01
2022-12-18T01:50:11.792Z,76.32
2022-12-18T01:52:39.743Z,78.40
2022-12-18T01:55:08.189Z,76.45
2022-12-18T01:57:35.972Z,75.78
2022-12-18T02:00:07.659Z,74.66
2022-12-18T02:02:34.307Z,73.72
2022-12-18T02:05:01.661Z,76.34
2022-12-18T02:07:31.268Z,75.98
2022-12-18T02:10:16.135Z,77.25
2022-12-18T02:13:01.914Z,76.23
2022-12-18T02:15:42.383Z,76.98
2022-12-18T02:18:20.258Z,74.16
2022-12-18T02:20:59.769Z,76.32
2022-12-18T02:23:53.672Z,78.14
2022-12-18T02:26:30.852Z,76.58
2022-12-18T02:29:06.118Z,76.72
2022-12-18T02:31:41.198Z,74.71
2022-12-18T02:34:10.940Z,76.11
2022-12-18T02:36:40.463Z,76.76
2022-12-18T02:39:10.590Z,76.48
2022-12-18T02:41:37.750Z,76.04
2022-12-18T02:44:11.667Z,75.67
2022-12-18T02:46:46.081Z,76.61
2022-12-18T02:49:38.079Z,75.80
2022-12-18T02:52:18.162Z,75.47
2022-12-18T02:55:01.660Z,76.70
2022-12-18T02:57:49.889Z,77.00
2022-12-18T03:00:25.230Z,76.11
2022-12-18T03:02:57.732Z,76.34
2022-12-18T03:05:32.586Z,76.24
2022-12-18T03:08:05.654Z,76.36
2022-12-18T03:10:36.425Z,77.25
2022-12-18T03:13:15.158Z,76.29
2022-12-18T03:15:47.195Z,75.95
2022-12-18T03:18:31.188Z,75.93
2022-12-18T03:21:01.890Z,76.29
2022-12-18T03:23:33.546Z,75.81
2022-12-18T03:26:07.413Z,76.41
2022-12-18T03:28:39.758Z,76.13
2022-12-18T03:31:10.233Z,75.02
2022-12-18T03:33:46.587Z,75.75
2022-12-18T03:36:13.599Z,75.61
2022-12-18T03:38:40.206Z,75.96
2022-12-18T03:41:15.759Z,75.76
2022-12-18T03:43:50.212Z,76.31
2022-12-18T03:46:27.222Z,75.78
2022-12-18T03:49:00.995Z,76.24
2022-12-18T03:51:38.266Z,75.49
2022-12-18T03:54:07.466Z,75.88
2022-12-18T03:56:41.317Z,75.88
2022-12-18T03:59:11.036Z,75.36
2022-12-18T04:01:41.985Z,75.42
2022-12-18T04:04:11.029Z,75.21
2022-12-18T04:06:39.630Z,75.64
2022-12-18T04:09:06.670Z,76.15
2022-12-18T04:11:33.311Z,75.72
2022-12-18T04:14:01.946Z,75.86
2022-12-18T04:16:31.351Z,75.49
2022-12-18T04:18:58.177Z,75.06
2022-12-18T04:21:24.897Z,75.34
2022-12-18T04:23:51.426Z,75.33
2022-12-18T04:26:18.423Z,74.66
2022-12-18T04:28:45.074Z,74.49
2022-12-18T04:31:11.740Z,74.46
2022-12-18T04:33:38.865Z,74.22
2022-12-18T04:36:06.257Z,74.67
2022-12-18T04:38:33.465Z,75.42
2022-12-18T04:41:00.053Z,75.28
2022-12-18T04:43:26.634Z,74.69
2022-12-18T04:45:53.301Z,76.58
2022-12-18T04:48:21.193Z,75.25
2022-12-18T04:50:48.991Z,74.35
2022-12-18T04:53:15.487Z,74.86
2022-12-18T04:55:42.002Z,75.24
2022-12-18T04:58:08.573Z,75.60
2022-12-18T05:00:36.489Z,74.83
2022-12-18T05:03:04.111Z,73.40
2022-12-18T05:05:30.979Z,76.43
2022-12-18T05:07:57.919Z,76.37
2022-12-18T05:10:24.871Z,76.10
2022-12-18T05:13:01.164Z,74.88
2022-12-18T05:15:30.258Z,75.62
2022-12-18T05:17:58.026Z,75.29
2022-12-18T05:20:25.669Z,75.22
2022-12-18T05:22:53.392Z,74.82
2022-12-18T05:25:20.810Z,75.20
2022-12-18T05:27:47.470Z,74.35
2022-12-18T05:30:14.454Z,73.67
2022-12-18T05:32:41.549Z,76.27
2022-12-18T05:35:10.180Z,74.00
2022-12-18T05:37:41.183Z,74.54
2022-12-18T05:40:10.566Z,74.06
2022-12-18T05:42:37.202Z,75.17
2022-12-18T05:45:04.267Z,74.78
2022-12-18T05:47:30.862Z,75.51
2022-12-18T05:49:57.732Z,75.19
2022-12-18T05:52:24.825Z,76.11
2022-12-18T05:54:51.396Z,75.23
2022-12-18T05:57:18.054Z,75.08
2022-12-18T05:59:44.644Z,74.88
2022-12-18T06:02:11.267Z,73.69
2022-12-18T06:04:37.943Z,75.57
2022-12-18T06:07:04.613Z,74.89
2022-12-18T06:09:31.264Z,75.13
2022-12-18T06:11:57.833Z,76.31
2022-12-18T06:14:24.465Z,75.27
2022-12-18T06:16:54.260Z,75.14
2022-12-18T06:19:21.070Z,76.04
2022-12-18T06:21:47.995Z,75.75
2022-12-18T06:24:14.712Z,74.71
2022-12-18T06:26:41.229Z,75.52
2022-12-18T06:29:07.954Z,75.02
2022-12-18T06:31:34.593Z,74.88
2022-12-18T06:34:03.995Z,75.93
2022-12-18T06:36:30.695Z,75.65
2022-12-18T06:38:57.506Z,75.50
2022-12-18T06:41:24.402Z,76.66
2022-12-18T06:43:52.250Z,75.75
2022-12-18T06:46:21.512Z,76.97
2022-12-18T06:48:50.130Z,76.40
2022-12-18T06:51:18.888Z,75.41
2022-12-18T06:53:45.815Z,75.86
2022-12-18T06:56:12.465Z,75.30
2022-12-18T06:58:39.976Z,75.86
2022-12-18T07:01:09.142Z,76.21
2022-12-18T07:03:36.030Z,75.56
2022-12-18T07:06:03.239Z,76.44
2022-12-18T07:08:31.174Z,75.46
2022-12-18T07:10:57.922Z,75.77
2022-12-18T07:13:24.612Z,75.60
2022-12-18T07:15:51.226Z,75.36
2022-12-18T07:18:17.862Z,75.90
2022-12-18T07:20:45.219Z,76.89
2022-12-18T07:23:12.559Z,76.22
2022-12-18T07:25:39.489Z,76.98
2022-12-18T07:28:06.241Z,76.39
2022-12-18T07:30:32.779Z,76.05
2022-12-18T07:32:59.360Z,75.85
2022-12-18T07:35:25.918Z,76.85
2022-12-18T07:37:52.426Z,76.79
2022-12-18T07:40:19.335Z,76.80
2022-12-18T07:42:46.071Z,78.08
2022-12-18T07:45:12.588Z,78.11
2022-12-18T07:47:39.153Z,77.02
2022-12-18T07:50:06.622Z,77.37
2022-12-18T07:52:33.259Z,78.07
2022-12-18T07:55:02.359Z,77.40
2022-12-18T08:00:16.123Z,78.25
2022-12-18T08:02:42.905Z,78.30
2022-12-18T08:05:09.793Z,78.58
2022-12-18T08:07:36.490Z,79.16
2022-12-18T08:10:03.220Z,79.03
2022-12-18T08:12:30.634Z,79.19
2022-12-18T08:14:57.173Z,79.02
2022-12-18T08:17:23.779Z,79.22
2022-12-18T08:19:50.548Z,79.08
2022-12-18T08:22:17.146Z,78.63
2022-12-18T08:24:44.042Z,79.13
2022-12-18T08:27:28.910Z,80.37
2022-12-18T08:29:56.875Z,80.03
2022-12-18T08:32:23.908Z,79.53
2022-12-18T08:34:50.599Z,78.29
2022-12-18T08:37:17.119Z,79.20
2022-12-18T08:39:43.651Z,78.53
2022-12-18T08:42:28.801Z,78.74
2022-12-18T08:44:55.409Z,77.53
2022-12-18T08:47:21.973Z,78.28
2022-12-18T08:49:48.461Z,78.62
2022-12-18T08:52:15.015Z,77.65
2022-12-18T08:54:41.584Z,77.82
2022-12-18T08:57:08.151Z,79.82
2022-12-18T08:59:34.727Z,78.75
2022-12-18T09:02:01.447Z,77.95
2022-12-18T09:04:28.147Z,78.25
2022-12-18T09:06:54.666Z,77.75
2022-12-18T09:09:21.183Z,77.80
2022-12-18T09:11:47.790Z,77.62
2022-12-18T09:14:14.443Z,77.54
2022-12-18T09:16:41.020Z,76.91
2022-12-18T09:19:07.846Z,78.44
2022-12-18T09:21:37.448Z,79.05
2022-12-18T09:24:05.253Z,78.30
2022-12-18T09:26:36.115Z,78.61
2022-12-18T09:29:03.721Z,79.13
2022-12-18T09:31:30.267Z,77.12
2022-12-18T09:33:57.721Z,78.53
2022-12-18T09:36:24.397Z,78.93
2022-12-18T09:38:51.488Z,78.26
2022-12-18T09:41:48.296Z,77.44
2022-12-18T09:44:26.041Z,77.66
2022-12-18T09:47:02.148Z,78.27
2022-12-18T09:49:33.381Z,77.54
2022-12-18T09:52:05.986Z,77.46
2022-12-18T09:54:44.484Z,77.16
2022-12-18T09:57:24.328Z,77.65
2022-12-18T10:00:04.270Z,76.92
2022-12-18T10:02:33.172Z,77.11
2022-12-18T10:05:15.237Z,77.17
2022-12-18T10:08:00.632Z,77.87
2022-12-18T10:10:30.209Z,77.30
2022-12-18T10:13:05.713Z,76.55
2022-12-18T10:15:46.322Z,77.11
2022-12-18T10:18:21.599Z,76.83
2022-12-18T10:20:55.660Z,77.11
2022-12-18T10:23:42.420Z,77.20
2022-12-18T10:26:15.867Z,76.26
2022-12-18T10:28:45.116Z,76.97
2022-12-18T10:31:24.330Z,76.09
2022-12-18T10:33:52.384Z,80.03
2022-12-18T10:36:19.268Z,77.21
2022-12-18T10:38:45.990Z,76.09
2022-12-18T10:41:18.633Z,78.59
2022-12-18T10:43:45.858Z,75.85
2022-12-18T10:46:12.433Z,78.77
2022-12-18T10:48:48.961Z,79.37
2022-12-18T10:51:31.491Z,76.73
2022-12-18T10:54:02.819Z,76.94
2022-12-18T10:56:32.712Z,76.74
2022-12-18T10:59:05.958Z,75.86
2022-12-18T11:01:53.537Z,76.01
2022-12-18T11:04:25.726Z,76.50
2022-12-18T11:07:01.146Z,76.79
2022-12-18T11:09:32.841Z,77.23
2022-12-18T11:12:02.316Z,76.06
2022-12-18T11:14:33.319Z,74.32
2022-12-18T11:19:57.706Z,74.88
2022-12-18T11:22:28.916Z,74.91
2022-12-18T11:27:56.824Z,74.41
2022-12-18T11:30:29.319Z,75.28
2022-12-18T11:33:18.633Z,74.24
2022-12-18T11:35:51.084Z,74.33
2022-12-18T11:38:27.870Z,75.19
2022-12-18T11:41:01.525Z,74.18
2022-12-18T11:43:34.509Z,73.56
2022-12-18T11:46:13.500Z,72.96
2022-12-18T11:48:55.219Z,74.50
2022-12-18T11:51:29.735Z,74.31
2022-12-18T11:53:56.275Z,74.20
2022-12-18T11:56:45.160Z,74.40
2022-12-18T11:59:38.159Z,72.84
2022-12-18T12:02:23.430Z,74.04
2022-12-18T12:05:20.917Z,72.13
2022-12-18T12:07:50.593Z,74.59
2022-12-18T12:10:32.356Z,71.57
2022-12-18T12:13:05.622Z,71.71
2022-12-18T12:15:32.180Z,75.48
2022-12-18T12:18:23.924Z,72.43
2022-12-18T12:20:54.275Z,73.07
2022-12-18T12:23:29.899Z,72.61
2022-12-18T12:26:02.270Z,72.18
2022-12-18T12:28:58.465Z,72.09
2022-12-18T12:31:52.801Z,71.28
2022-12-18T12:34:19.569Z,73.83
2022-12-18T12:37:10.232Z,72.00
2022-12-18T12:39:40.640Z,74.54
2022-12-18T12:42:36.996Z,72.96
2022-12-18T12:45:07.835Z,76.31
2022-12-18T12:47:39.626Z,70.41
2022-12-18T12:50:13.530Z,73.05
2022-12-18T12:52:55.629Z,71.92
2022-12-18T12:55:25.374Z,74.01
2022-12-18T12:58:32.540Z,71.52
2022-12-18T13:01:05.092Z,71.95
2022-12-18T13:03:51.302Z,70.31
2022-12-18T13:06:43.011Z,71.29
2022-12-18T13:09:11.590Z,72.96
2022-12-18T13:12:00.614Z,70.32
2022-12-18T13:14:29.771Z,70.65
2022-12-18T13:17:21.582Z,70.91
2022-12-18T13:19:53.589Z,71.56
2022-12-18T13:22:30.347Z,70.99
2022-12-18T13:24:58.542Z,71.13
2022-12-18T13:28:04.503Z,70.07
2022-12-18T13:30:34.072Z,71.36
2022-12-18T13:33:18.264Z,69.77
2022-12-18T13:35:47.621Z,70.84
2022-12-18T13:38:32.948Z,69.28
2022-12-18T13:41:01.241Z,70.80
2022-12-18T13:43:37.027Z,70.16
2022-12-18T13:46:22.489Z,68.81
2022-12-18T13:48:54.960Z,70.57
2022-12-18T13:51:23.258Z,71.38
2022-12-18T13:53:55.719Z,71.83
2022-12-18T13:56:25.433Z,72.22
2022-12-18T13:59:13.373Z,71.57
2022-12-18T14:01:48.985Z,70.01
2022-12-18T14:04:26.359Z,69.51
2022-12-18T14:07:04.925Z,70.67
2022-12-18T14:09:40.447Z,71.00
2022-12-18T14:12:26.203Z,70.60
2022-12-18T14:14:55.611Z,70.00
2022-12-18T14:17:24.053Z,70.39
2022-12-18T14:19:52.279Z,70.79
2022-12-18T14:22:31.152Z,69.39
2022-12-18T14:25:14.408Z,69.77
2022-12-18T14:28:07.510Z,68.89
2022-12-18T14:30:40.902Z,69.74
2022-12-18T14:33:12.549Z,69.44
2022-12-18T14:35:42.242Z,69.00
2022-12-18T14:38:21.430Z,68.72
2022-12-18T14:40:48.236Z,69.52
2022-12-18T14:43:14.813Z,71.74
2022-12-18T14:45:45.505Z,69.76
2022-12-18T14:48:12.567Z,68.38
2022-12-18T14:50:40.784Z,69.96
2022-12-18T14:53:19.524Z,70.04
2022-12-18T14:55:49.855Z,68.51
2022-12-18T14:58:18.489Z,69.33
2022-12-18T15:00:45.210Z,68.21
2022-12-18T15:03:19.466Z,67.43
2022-12-18T15:05:46.394Z,69.82
2022-12-18T15:08:32.486Z,67.63
2022-12-18T15:10:59.602Z,68.16
2022-12-18T15:13:26.293Z,67.93
2022-12-18T15:15:55.678Z,69.82
2022-12-18T15:18:31.204Z,69.08
2022-12-18T15:21:00.219Z,68.62
2022-12-18T15:23:47.359Z,67.78
2022-12-18T15:26:17.172Z,69.31
2022-12-18T15:28:49.793Z,68.42
2022-12-18T15:31:18.112Z,69.93
2022-12-18T15:33:53.969Z,68.84
2022-12-18T15:36:26.379Z,68.45
2022-12-18T15:38:55.169Z,69.16
2022-12-18T15:41:25.895Z,67.17
2022-12-18T15:43:54.193Z,67.86
2022-12-18T15:46:25.368Z,68.92
2022-12-18T15:48:59.768Z,68.74
2022-12-18T15:51:30.444Z,67.05
2022-12-18T15:53:59.506Z,68.38
2022-12-18T15:56:44.542Z,66.79
2022-12-18T15:59:13.549Z,68.46
2022-12-18T16:01:42.795Z,67.04
2022-12-18T16:04:13.035Z,67.62
2022-12-18T16:07:05.333Z,67.54
2022-12-18T16:09:26.622Z,67.17
2022-12-18T16:11:53.499Z,66.91
2022-12-18T16:14:27.616Z,66.32
2022-12-18T16:16:56.907Z,68.04
2022-12-18T16:19:24.451Z,67.75
2022-12-18T16:21:53.312Z,65.85
2022-12-18T16:24:25.161Z,67.49
2022-12-18T16:26:52.888Z,66.64
2022-12-18T16:29:20.399Z,68.33
2022-12-18T16:31:50.627Z,68.91
2022-12-18T16:34:29.181Z,67.65
2022-12-18T16:37:03.112Z,65.92
2022-12-18T16:39:32.907Z,67.80
2022-12-18T16:42:00.025Z,68.19
2022-12-18T16:44:28.681Z,67.40
2022-12-18T16:46:55.598Z,67.05
2022-12-18T16:49:22.429Z,67.10
2022-12-18T16:51:49.505Z,67.67
2022-12-18T16:54:19.171Z,66.97
2022-12-18T16:56:49.837Z,67.94
2022-12-18T16:59:16.678Z,68.09
2022-12-18T17:01:44.639Z,68.00
2022-12-18T17:04:11.512Z,67.83
2022-12-18T17:06:43.783Z,66.70
2022-12-18T17:09:15.530Z,67.81
2022-12-18T17:11:42.735Z,66.75
2022-12-18T17:14:12.939Z,65.15
2022-12-18T17:16:40.228Z,65.48
2022-12-18T17:19:12.133Z,66.03
2022-12-18T17:21:42.144Z,67.04
2022-12-18T17:24:09.377Z,67.16
2022-12-18T17:26:36.609Z,66.19
2022-12-18T17:29:03.867Z,66.73
2022-12-18T17:31:31.050Z,67.40
2022-12-18T17:33:58.622Z,66.67
2022-12-18T17:36:28.979Z,66.89
2022-12-18T17:38:58.129Z,66.96
2022-12-18T17:41:25.832Z,66.49
2022-12-18T17:43:53.782Z,66.94
2022-12-18T17:46:20.553Z,66.41
2022-12-18T17:48:47.576Z,67.57
2022-12-18T17:51:16.185Z,66.25
2022-12-18T17:53:43.446Z,66.83
2022-12-18T17:56:13.915Z,67.14
2022-12-18T17:58:40.732Z,67.51
2022-12-18T18:01:08.294Z,66.39
2022-12-18T18:03:38.218Z,66.70
2022-12-18T18:06:05.351Z,66.11
2022-12-18T18:08:34.710Z,66.51
2022-12-18T18:11:31.997Z,66.96
2022-12-18T18:14:02.225Z,66.55
2022-12-18T18:16:30.431Z,65.83
2022-12-18T18:18:58.777Z,65.92
2022-12-18T18:21:25.635Z,67.19
2022-12-18T18:23:52.736Z,66.17
2022-12-18T18:26:20.091Z,67.68
2022-12-18T18:28:46.724Z,66.14
2022-12-18T18:31:13.379Z,65.80
2022-12-18T18:33:40.522Z,67.10
2022-12-18T18:36:10.513Z,66.07
2022-12-18T18:38:38.981Z,66.08
2022-12-18T18:41:06.112Z,65.93
2022-12-18T18:43:33.074Z,66.23
2022-12-18T18:46:01.812Z,66.89
2022-12-18T18:48:33.936Z,67.14
2022-12-18T18:51:08.455Z,65.01
2022-12-18T18:53:40.008Z,66.65
2022-12-18T18:58:56.482Z,66.61
2022-12-18T19:01:24.241Z,67.07
2022-12-18T19:03:51.476Z,67.25
2022-12-18T19:06:20.964Z,66.75
2022-12-18T19:08:48.432Z,65.47
2022-12-18T19:11:36.477Z,66.52
2022-12-18T19:14:05.848Z,66.41
2022-12-18T19:16:34.096Z,66.74
2022-12-18T19:19:02.312Z,66.39
2022-12-18T19:21:33.873Z,66.96
2022-12-18T19:24:01.677Z,66.20
2022-12-18T19:26:28.815Z,66.56
2022-12-18T19:29:07.744Z,66.03
2022-12-18T19:31:36.326Z,64.56
2022-12-18T19:34:05.017Z,66.72
2022-12-18T19:36:32.886Z,66.28
2022-12-18T19:39:01.691Z,66.32
2022-12-18T19:41:37.680Z,65.88
2022-12-18T19:44:07.748Z,65.57
2022-12-18T19:46:35.911Z,65.48
2022-12-18T19:49:03.020Z,66.05
2022-12-18T19:51:31.673Z,66.11
2022-12-18T19:54:01.724Z,65.75
2022-12-18T19:56:31.514Z,65.88
2022-12-18T19:58:58.470Z,66.46
2022-12-18T20:01:26.573Z,66.86
2022-12-18T20:03:55.890Z,67.25
2022-12-18T20:06:30.318Z,67.52
2022-12-18T20:09:00.677Z,67.85
2022-12-18T20:11:28.878Z,68.06
2022-12-18T20:13:55.545Z,68.85
2022-12-18T20:16:22.087Z,69.24
2022-12-18T20:18:49.252Z,69.46
2022-12-18T20:21:16.103Z,69.82
2022-12-18T20:23:43.638Z,69.75
2022-12-18T20:26:10.986Z,70.49
2022-12-18T20:28:37.864Z,70.65
2022-12-18T20:31:10.506Z,71.09
2022-12-18T20:33:42.030Z,70.99
2022-12-18T20:36:13.725Z,72.54
2022-12-18T20:38:41.732Z,71.35
2022-12-18T20:41:12.589Z,70.92
2022-12-18T20:43:39.775Z,73.35
2022-12-18T20:46:16.191Z,73.10
2022-12-18T20:48:44.709Z,73.56
2022-12-18T20:51:15.246Z,72.63
2022-12-18T20:53:42.597Z,73.03
2022-12-18T20:56:12.622Z,72.32
2022-12-18T20:58:39.219Z,73.12
2022-12-18T21:01:07.731Z,72.61
2022-12-18T21:03:34.494Z,73.04
2022-12-18T21:06:01.026Z,73.84
2022-12-18T21:08:27.528Z,72.32
2022-12-18T21:10:55.487Z,74.95
2022-12-18T21:13:22.622Z,73.69
2022-12-18T21:15:49.463Z,76.26
2022-12-18T21:18:16.260Z,74.74
2022-12-18T21:20:43.094Z,75.13
2022-12-18T21:23:15.679Z,76.63
2022-12-18T21:25:42.828Z,74.29
2022-12-18T21:28:09.415Z,72.04
2022-12-18T21:30:36.101Z,74.80
2022-12-18T21:33:02.779Z,76.07
2022-12-18T21:35:29.374Z,77.68
2022-12-18T21:37:58.850Z,74.68
2022-12-18T21:40:25.526Z,76.98
2022-12-18T21:43:10.541Z,76.40
2022-12-18T21:45:41.709Z,75.56
2022-12-18T21:48:08.289Z,74.70
2022-12-18T21:50:34.809Z,77.01
2022-12-18T21:53:01.301Z,75.81
2022-12-18T21:55:27.901Z,75.39
2022-12-18T21:57:54.396Z,78.23
2022-12-18T22:00:21.035Z,74.97
2022-12-18T22:03:01.114Z,77.52
2022-12-18T22:05:35.938Z,73.75
2022-12-18T22:08:02.480Z,75.95
2022-12-18T22:10:29.036Z,74.68
2022-12-18T22:12:55.487Z,74.73
2022-12-18T22:15:22.192Z,77.00
2022-12-18T22:17:50.450Z,79.36
2022-12-18T22:20:20.482Z,76.88
2022-12-18T22:22:48.260Z,78.02
2022-12-18T22:25:15.002Z,81.83
2022-12-18T22:27:41.504Z,80.38
2022-12-18T22:30:08.632Z,77.30
2022-12-18T22:32:36.366Z,76.15
2022-12-18T22:35:09.537Z,76.58
2022-12-18T22:37:40.840Z,78.41
2022-12-18T22:40:08.634Z,78.14
2022-12-18T22:42:35.455Z,78.03
2022-12-18T22:45:02.005Z,76.20
2022-12-18T22:47:30.405Z,79.81
2022-12-18T22:49:57.694Z,75.27
2022-12-18T22:52:25.065Z,81.60
2022-12-18T22:54:53.559Z,79.34
2022-12-18T22:57:20.589Z,77.90
2022-12-18T22:59:47.104Z,77.87
2022-12-18T23:02:13.691Z,77.12
2022-12-18T23:04:40.357Z,80.84
2022-12-18T23:07:06.960Z,77.29
2022-12-18T23:09:33.485Z,81.23
2022-12-18T23:12:00.352Z,77.66
2022-12-18T23:14:28.062Z,81.60
2022-12-18T23:16:54.711Z,77.26
2022-12-18T23:19:23.632Z,76.67
2022-12-18T23:21:50.795Z,79.66
2022-12-18T23:24:17.361Z,80.60
2022-12-18T23:26:43.968Z,81.18
2022-12-18T23:29:10.607Z,83.11
2022-12-18T23:31:39.180Z,78.98
2022-12-18T23:34:07.137Z,77.94
2022-12-18T23:36:45.616Z,82.70
2022-12-18T23:39:29.124Z,84.55
2022-12-18T23:41:58.126Z,80.70
2022-12-18T23:44:25.022Z,81.22
2022-12-18T23:46:51.574Z,85.28
2022-12-18T23:49:18.136Z,83.26
2022-12-18T23:51:45.168Z,82.98
2022-12-18T23:54:11.751Z,81.45
2022-12-18T23:56:38.238Z,79.44
2022-12-18T23:59:05.048Z,80.01
